createdAt,value
2018-09-10T00:01:36.060Z,1.10
2018-09-10T00:04:04.211Z,1.03
2018-09-10T00:06:32.466Z,0.80
2018-09-10T00:09:00.608Z,0.97
2018-09-10T00:11:28.820Z,0.90
2018-09-10T00:13:57.036Z,0.90
2018-09-10T00:16:25.191Z,1.10
2018-09-10T00:18:53.352Z,1.10
2018-09-10T00:21:21.496Z,0.87
2018-09-10T00:23:49.706Z,0.80
2018-09-10T00:26:17.920Z,0.80
2018-09-10T00:28:46.117Z,0.90
2018-09-10T00:31:14.338Z,0.80
2018-09-10T00:33:42.524Z,0.70
2018-09-10T00:36:10.753Z,0.80
2018-09-10T00:38:38.983Z,0.70
2018-09-10T00:41:07.150Z,1.00
2018-09-10T00:43:35.411Z,1.00
2018-09-10T00:46:03.553Z,0.80
2018-09-10T00:48:31.769Z,0.80
2018-09-10T00:50:59.955Z,0.87
2018-09-10T00:53:28.143Z,0.90
2018-09-10T00:55:56.413Z,0.83
2018-09-10T00:58:24.636Z,1.00
2018-09-10T01:00:52.831Z,0.90
2018-09-10T01:03:21.065Z,0.83
2018-09-10T01:05:49.242Z,1.27
2018-09-10T01:08:17.481Z,0.90
2018-09-10T01:10:45.684Z,0.90
2018-09-10T01:13:13.876Z,0.93
2018-09-10T01:15:42.095Z,0.90
2018-09-10T01:18:10.248Z,1.10
2018-09-10T01:20:38.507Z,0.80
2018-09-10T01:23:06.704Z,1.03
2018-09-10T01:25:34.925Z,1.17
2018-09-10T01:28:03.120Z,0.80
2018-09-10T01:30:31.319Z,1.00
2018-09-10T01:32:59.675Z,1.00
2018-09-10T01:35:32.267Z,0.70
2018-09-10T01:38:00.597Z,1.03
2018-09-10T01:40:28.816Z,0.80
2018-09-10T01:42:57.000Z,1.10
2018-09-10T01:45:26.077Z,0.97
2018-09-10T01:47:54.230Z,0.70
2018-09-10T01:50:22.449Z,1.17
2018-09-10T01:52:50.640Z,1.37
2018-09-10T01:55:19.582Z,1.20
2018-09-10T01:57:47.795Z,0.93
2018-09-10T02:00:15.984Z,0.77
2018-09-10T02:02:44.216Z,0.90
2018-09-10T02:05:12.359Z,0.70
2018-09-10T02:07:40.608Z,1.10
2018-09-10T02:10:08.853Z,1.10
2018-09-10T02:12:37.068Z,0.90
2018-09-10T02:15:05.246Z,0.83
2018-09-10T02:17:33.435Z,0.80
2018-09-10T02:20:01.666Z,0.90
2018-09-10T02:22:29.853Z,1.00
2018-09-10T02:24:58.039Z,1.00
2018-09-10T02:27:26.348Z,0.90
2018-09-10T02:29:54.407Z,0.97
2018-09-10T02:32:22.579Z,0.80
2018-09-10T02:34:50.765Z,0.90
2018-09-10T02:37:18.993Z,1.10
2018-09-10T02:39:47.194Z,0.80
2018-09-10T02:42:15.347Z,0.93
2018-09-10T02:44:43.540Z,0.70
2018-09-10T02:47:11.726Z,0.90
2018-09-10T02:49:39.920Z,1.07
2018-09-10T02:52:08.095Z,1.00
2018-09-10T02:54:36.291Z,0.80
2018-09-10T02:57:04.788Z,1.10
2018-09-10T02:59:33.546Z,0.80
2018-09-10T03:02:01.682Z,0.70
2018-09-10T03:04:29.903Z,0.73
2018-09-10T03:06:58.079Z,0.70
2018-09-10T03:09:26.253Z,1.00
2018-09-10T03:11:54.458Z,0.90
2018-09-10T03:14:22.662Z,0.60
2018-09-10T03:16:50.848Z,0.63
2018-09-10T03:19:19.044Z,0.80
2018-09-10T03:21:47.263Z,1.00
2018-09-10T03:24:15.468Z,1.03
2018-09-10T03:26:43.666Z,0.90
2018-09-10T03:29:11.913Z,1.00
2018-09-10T03:31:40.156Z,0.87
2018-09-10T03:34:08.304Z,1.00
2018-09-10T03:36:36.496Z,1.00
2018-09-10T03:39:06.055Z,1.20
2018-09-10T03:41:34.253Z,1.10
2018-09-10T03:44:02.474Z,1.00
2018-09-10T03:46:30.706Z,0.80
2018-09-10T03:48:58.899Z,1.00
2018-09-10T03:51:27.118Z,0.80
2018-09-10T03:53:55.333Z,0.80
2018-09-10T03:56:23.516Z,0.83
2018-09-10T03:58:51.664Z,0.90
2018-09-10T04:01:19.831Z,1.50
2018-09-10T04:03:48.355Z,0.87
2018-09-10T04:06:16.556Z,1.10
2018-09-10T04:08:44.722Z,0.80
2018-09-10T04:11:13.348Z,0.80
2018-09-10T04:13:41.533Z,1.00
2018-09-10T04:16:09.705Z,0.87
2018-09-10T04:18:38.312Z,0.77
2018-09-10T04:21:06.528Z,0.90
2018-09-10T04:23:34.739Z,1.07
2018-09-10T04:26:02.985Z,0.80
2018-09-10T04:28:31.180Z,0.80
2018-09-10T04:30:59.344Z,0.90
2018-09-10T04:33:27.740Z,1.10
2018-09-10T04:35:55.968Z,0.90
2018-09-10T04:38:24.166Z,0.80
2018-09-10T04:40:52.299Z,0.90
2018-09-10T04:43:20.517Z,0.80
2018-09-10T04:45:48.666Z,0.90
2018-09-10T04:48:16.903Z,0.80
2018-09-10T04:50:45.094Z,0.90
2018-09-10T04:53:13.320Z,0.83
2018-09-10T04:55:41.616Z,0.90
2018-09-10T04:58:09.844Z,0.90
2018-09-10T05:00:38.015Z,1.07
2018-09-10T05:03:06.195Z,0.97
2018-09-10T05:05:34.391Z,0.80
2018-09-10T05:08:02.576Z,1.10
2018-09-10T05:10:30.818Z,0.87
2018-09-10T05:12:59.007Z,0.70
2018-09-10T05:15:27.260Z,0.80
2018-09-10T05:17:55.510Z,1.00
2018-09-10T05:20:23.651Z,0.80
2018-09-10T05:22:51.787Z,0.90
2018-09-10T05:25:19.992Z,1.10
2018-09-10T05:27:48.236Z,0.93
2018-09-10T05:30:16.391Z,1.10
2018-09-10T05:32:44.592Z,1.03
2018-09-10T05:35:12.749Z,1.07
2018-09-10T05:37:40.938Z,1.10
2018-09-10T05:40:10.007Z,1.00
2018-09-10T05:42:38.580Z,1.17
2018-09-10T05:45:08.899Z,1.13
2018-09-10T05:47:37.137Z,1.10
2018-09-10T05:50:05.368Z,1.13
2018-09-10T05:52:33.597Z,1.00
2018-09-10T05:55:01.768Z,0.80
2018-09-10T05:57:29.924Z,0.90
2018-09-10T05:59:58.139Z,1.10
2018-09-10T06:02:26.297Z,0.80
2018-09-10T06:04:54.927Z,1.30
2018-09-10T06:07:23.164Z,0.93
2018-09-10T06:09:51.362Z,1.30
2018-09-10T06:12:19.548Z,1.33
2018-09-10T06:14:47.813Z,0.90
2018-09-10T06:17:16.025Z,1.07
2018-09-10T06:19:44.212Z,1.00
2018-09-10T06:22:12.430Z,1.00
2018-09-10T06:24:40.598Z,1.10
2018-09-10T06:27:08.775Z,1.10
2018-09-10T06:29:37.007Z,1.23
2018-09-10T06:32:05.204Z,1.00
2018-09-10T06:34:33.397Z,0.70
2018-09-10T06:37:01.656Z,1.17
2018-09-10T06:39:29.795Z,0.90
2018-09-10T06:41:57.978Z,0.90
2018-09-10T06:44:26.174Z,1.00
2018-09-10T06:46:54.344Z,0.90
2018-09-10T06:49:22.520Z,1.00
2018-09-10T06:51:50.689Z,0.90
2018-09-10T06:54:18.901Z,1.00
2018-09-10T06:56:47.102Z,0.97
2018-09-10T06:59:16.121Z,1.10
2018-09-10T07:01:44.375Z,1.27
2018-09-10T07:04:12.576Z,1.10
2018-09-10T07:06:40.723Z,1.30
2018-09-10T07:09:09.769Z,1.10
2018-09-10T07:11:38.441Z,1.23
2018-09-10T07:14:06.645Z,1.40
2018-09-10T07:16:35.856Z,1.30
2018-09-10T07:19:04.069Z,1.60
2018-09-10T07:21:32.261Z,1.57
2018-09-10T07:24:00.424Z,1.33
2018-09-10T07:26:28.621Z,1.50
2018-09-10T07:28:56.824Z,1.40
2018-09-10T07:31:25.040Z,1.70
2018-09-10T07:33:53.191Z,1.53
2018-09-10T07:36:21.410Z,1.57
2018-09-10T07:38:49.724Z,1.60
2018-09-10T07:41:17.952Z,1.93
2018-09-10T07:43:46.331Z,2.27
2018-09-10T07:46:14.429Z,2.20
2018-09-10T07:48:42.698Z,2.43
2018-09-10T07:51:10.893Z,2.50
2018-09-10T07:53:39.094Z,2.93
2018-09-10T07:56:07.305Z,2.67
2018-09-10T07:58:35.862Z,2.67
2018-09-10T08:01:04.088Z,2.13
2018-09-10T08:03:32.272Z,2.33
2018-09-10T08:06:00.481Z,2.97
2018-09-10T08:08:28.702Z,3.27
2018-09-10T08:10:56.894Z,3.60
2018-09-10T08:13:25.152Z,2.93
2018-09-10T08:15:53.290Z,3.03
2018-09-10T08:18:21.507Z,3.03
2018-09-10T08:20:49.720Z,2.93
2018-09-10T08:23:17.863Z,2.90
2018-09-10T08:25:46.090Z,2.90
2018-09-10T08:28:14.555Z,2.50
2018-09-10T08:30:42.741Z,2.27
2018-09-10T08:33:10.944Z,2.67
2018-09-10T08:35:39.147Z,2.40
2018-09-10T08:38:07.335Z,2.97
2018-09-10T08:40:35.528Z,2.53
2018-09-10T08:43:04.052Z,2.20
2018-09-10T08:45:32.264Z,2.70
2018-09-10T08:48:00.508Z,3.10
2018-09-10T08:50:28.704Z,2.60
2018-09-10T08:52:57.007Z,3.33
2018-09-10T08:55:25.317Z,2.53
2018-09-10T08:57:53.415Z,2.63
2018-09-10T09:00:21.668Z,2.63
2018-09-10T09:02:49.895Z,2.53
2018-09-10T09:05:18.043Z,2.03
2018-09-10T09:07:46.251Z,2.30
2018-09-10T09:10:14.439Z,2.43
2018-09-10T09:12:42.670Z,2.57
2018-09-10T09:15:10.876Z,2.40
2018-09-10T09:17:39.060Z,2.47
2018-09-10T09:20:08.404Z,1.93
2018-09-10T09:22:36.593Z,2.20
2018-09-10T09:25:04.793Z,2.20
2018-09-10T09:27:33.302Z,2.40
2018-09-10T09:30:01.513Z,3.00
2018-09-10T09:32:29.734Z,2.30
2018-09-10T09:34:58.883Z,2.00
2018-09-10T09:37:32.309Z,2.03
2018-09-10T09:40:05.933Z,1.97
2018-09-10T09:42:39.764Z,2.20
2018-09-10T09:45:13.740Z,2.15
2018-09-10T09:47:41.918Z,2.47
2018-09-10T09:50:10.369Z,1.90
2018-09-10T09:52:38.617Z,2.17
2018-09-10T09:55:06.823Z,2.07
2018-09-10T09:57:34.997Z,2.00
2018-09-10T10:00:03.220Z,2.10
2018-09-10T10:02:36.912Z,2.20
2018-09-10T10:05:05.140Z,2.00
2018-09-10T10:07:33.353Z,2.17
2018-09-10T10:10:01.530Z,1.87
2018-09-10T10:12:29.723Z,2.57
2018-09-10T10:14:57.901Z,2.03
2018-09-10T10:17:26.159Z,1.90
2018-09-10T10:19:54.358Z,2.17
2018-09-10T10:22:22.531Z,2.33
2018-09-10T10:24:50.770Z,2.43
2018-09-10T10:27:18.991Z,2.70
2018-09-10T10:29:47.320Z,2.40
2018-09-10T10:32:15.495Z,2.60
2018-09-10T10:34:43.711Z,2.07
2018-09-10T10:37:11.894Z,1.80
2018-09-10T10:39:40.049Z,1.70
2018-09-10T10:42:08.260Z,2.20
2018-09-10T10:44:36.423Z,2.00
2018-09-10T10:47:04.697Z,2.03
2018-09-10T10:49:32.835Z,1.63
2018-09-10T10:52:01.031Z,1.63
2018-09-10T10:54:29.220Z,1.90
2018-09-10T10:56:57.416Z,2.17
2018-09-10T10:59:26.821Z,1.80
2018-09-10T11:01:55.013Z,1.93
2018-09-10T11:04:23.192Z,1.50
2018-09-10T11:06:51.402Z,1.77
2018-09-10T11:09:19.604Z,2.00
2018-09-10T11:11:47.853Z,1.63
2018-09-10T11:14:16.039Z,1.30
2018-09-10T11:16:44.312Z,1.60
2018-09-10T11:19:12.508Z,1.90
2018-09-10T11:21:40.726Z,1.67
2018-09-10T11:24:08.879Z,1.20
2018-09-10T11:26:37.074Z,1.67
2018-09-10T11:29:05.249Z,1.47
2018-09-10T11:31:33.424Z,1.23
2018-09-10T11:34:01.573Z,1.87
2018-09-10T11:36:29.816Z,1.57
2018-09-10T11:38:58.002Z,1.73
2018-09-10T11:41:26.173Z,2.20
2018-09-10T11:43:54.331Z,1.90
2018-09-10T11:46:22.539Z,2.23
2018-09-10T11:48:50.780Z,2.50
2018-09-10T11:51:19.600Z,2.40
2018-09-10T11:53:47.875Z,2.37
2018-09-10T11:56:16.043Z,2.10
2018-09-10T11:58:44.200Z,2.30
2018-09-10T12:01:12.439Z,2.50
2018-09-10T12:03:40.665Z,2.53
2018-09-10T12:08:43.620Z,2.53
2018-09-10T12:11:11.839Z,2.50
2018-09-10T12:13:40.091Z,2.47
2018-09-10T12:16:08.303Z,2.77
2018-09-10T12:18:36.502Z,1.90
2018-09-10T12:21:04.723Z,2.80
2018-09-10T12:23:32.871Z,2.50
2018-09-10T12:26:01.097Z,1.90
2018-09-10T12:28:29.296Z,2.30
2018-09-10T12:30:57.439Z,2.00
2018-09-10T12:33:25.669Z,2.10
2018-09-10T12:35:53.932Z,1.80
2018-09-10T12:38:22.114Z,2.00
2018-09-10T12:40:51.101Z,1.93
2018-09-10T12:44:48.499Z,2.10
2018-09-10T12:47:16.712Z,1.80
2018-09-10T12:49:44.922Z,2.13
2018-09-10T12:52:13.103Z,2.23
2018-09-10T12:54:41.303Z,2.23
2018-09-10T12:57:09.488Z,1.70
2018-09-10T12:59:37.948Z,2.60
2018-09-10T13:02:12.808Z,1.73
2018-09-10T13:04:40.996Z,1.80
2018-09-10T13:07:09.163Z,1.60
2018-09-10T13:09:37.357Z,1.70
2018-09-10T13:12:05.673Z,1.60
2018-09-10T13:14:33.837Z,1.63
2018-09-10T13:17:02.268Z,1.53
2018-09-10T13:19:30.479Z,1.40
2018-09-10T13:21:58.664Z,2.00
2018-09-10T13:24:26.839Z,1.50
2018-09-10T13:26:55.374Z,1.40
2018-09-10T13:29:24.825Z,1.70
2018-09-10T13:31:53.119Z,1.37
2018-09-10T13:34:21.301Z,1.37
2018-09-10T13:36:49.733Z,1.70
2018-09-10T13:39:17.967Z,1.70
2018-09-10T13:41:46.087Z,1.47
2018-09-10T13:44:14.265Z,1.37
2018-09-10T13:46:42.484Z,1.33
2018-09-10T13:49:10.659Z,1.50
2018-09-10T13:51:38.826Z,1.60
2018-09-10T13:54:07.054Z,1.43
2018-09-10T13:56:35.213Z,1.30
2018-09-10T13:59:03.438Z,1.60
2018-09-10T14:01:31.587Z,1.60
2018-09-10T14:03:59.815Z,1.43
2018-09-10T14:06:28.047Z,1.80
2018-09-10T14:08:56.836Z,1.60
2018-09-10T14:11:25.014Z,1.83
2018-09-10T14:13:53.239Z,1.43
2018-09-10T14:16:21.460Z,1.47
2018-09-10T14:18:49.708Z,1.23
2018-09-10T14:21:17.956Z,1.20
2018-09-10T14:23:46.593Z,1.13
2018-09-10T14:26:14.779Z,1.30
2018-09-10T14:28:43.024Z,1.50
2018-09-10T14:31:11.199Z,1.10
2018-09-10T14:33:39.642Z,1.57
2018-09-10T14:36:07.870Z,1.10
2018-09-10T14:38:36.045Z,1.20
2018-09-10T14:41:04.259Z,1.10
2018-09-10T14:43:32.559Z,1.40
2018-09-10T14:46:00.727Z,1.43
2018-09-10T14:48:28.909Z,1.13
2018-09-10T14:50:57.141Z,1.30
2018-09-10T14:53:25.376Z,1.30
2018-09-10T14:55:53.591Z,1.40
2018-09-10T14:58:21.770Z,1.60
2018-09-10T15:00:49.952Z,1.13
2018-09-10T15:03:18.150Z,1.07
2018-09-10T15:05:46.352Z,1.20
2018-09-10T15:08:14.547Z,1.30
2018-09-10T15:10:42.694Z,1.00
2018-09-10T15:13:12.146Z,1.20
2018-09-10T15:15:40.327Z,1.30
2018-09-10T15:18:08.508Z,1.27
2018-09-10T15:20:36.724Z,1.30
2018-09-10T15:23:04.938Z,1.10
2018-09-10T15:25:33.107Z,1.43
2018-09-10T15:28:01.286Z,1.50
2018-09-10T15:30:29.453Z,1.23
2018-09-10T15:32:57.614Z,1.43
2018-09-10T15:35:25.781Z,1.63
2018-09-10T15:37:53.948Z,1.20
2018-09-10T15:40:22.148Z,0.90
2018-09-10T15:42:50.324Z,1.67
2018-09-10T15:45:18.579Z,1.33
2018-09-10T15:47:46.791Z,1.20
2018-09-10T15:50:14.962Z,1.27
2018-09-10T15:52:43.147Z,1.30
2018-09-10T15:55:11.429Z,1.13
2018-09-10T15:57:39.644Z,1.23
2018-09-10T16:00:08.021Z,1.20
2018-09-10T16:02:36.187Z,1.37
2018-09-10T16:05:04.644Z,1.33
2018-09-10T16:07:32.877Z,1.30
2018-09-10T16:10:01.053Z,1.13
2018-09-10T16:12:29.256Z,1.50
2018-09-10T16:14:57.471Z,1.17
2018-09-10T16:17:25.631Z,1.53
2018-09-10T16:19:53.844Z,1.20
2018-09-10T16:22:22.061Z,1.27
2018-09-10T16:24:50.305Z,1.00
2018-09-10T16:27:19.083Z,1.10
2018-09-10T16:29:47.367Z,1.10
2018-09-10T16:32:15.554Z,1.50
2018-09-10T16:34:43.708Z,1.07
2018-09-10T16:37:11.918Z,1.37
2018-09-10T16:39:40.682Z,1.13
2018-09-10T16:42:08.918Z,1.07
2018-09-10T16:44:37.097Z,1.20
2018-09-10T16:47:05.372Z,1.17
2018-09-10T16:49:33.584Z,1.70
2018-09-10T16:52:01.879Z,0.97
2018-09-10T16:54:30.161Z,1.27
2018-09-10T16:56:58.307Z,1.50
2018-09-10T16:59:27.782Z,1.27
2018-09-10T17:01:56.017Z,1.10
2018-09-10T17:04:24.184Z,1.10
2018-09-10T17:06:52.364Z,1.33
2018-09-10T17:09:20.773Z,0.97
2018-09-10T17:11:48.987Z,0.90
2018-09-10T17:14:17.198Z,0.87
2018-09-10T17:16:46.254Z,1.20
2018-09-10T17:19:14.435Z,1.00
2018-09-10T17:21:42.731Z,1.00
2018-09-10T17:24:10.871Z,1.30
2018-09-10T17:26:39.059Z,1.27
2018-09-10T17:29:07.208Z,1.27
2018-09-10T17:31:35.396Z,1.50
2018-09-10T17:34:03.607Z,1.03
2018-09-10T17:36:31.803Z,1.30
2018-09-10T17:38:59.994Z,1.30
2018-09-10T17:41:28.172Z,1.20
2018-09-10T17:43:56.404Z,1.53
2018-09-10T17:46:24.576Z,1.27
2018-09-10T17:48:52.759Z,1.30
2018-09-10T17:51:20.937Z,1.10
2018-09-10T17:53:49.075Z,1.20
2018-09-10T17:56:17.342Z,1.27
2018-09-10T17:58:45.562Z,1.27
2018-09-10T18:01:13.780Z,1.13
2018-09-10T18:03:42.024Z,1.40
2018-09-10T18:06:10.192Z,1.27
2018-09-10T18:08:38.368Z,1.17
2018-09-10T18:11:06.639Z,1.17
2018-09-10T18:13:34.857Z,1.30
2018-09-10T18:16:03.097Z,1.30
2018-09-10T18:18:31.304Z,1.30
2018-09-10T18:20:59.509Z,1.00
2018-09-10T18:23:27.729Z,1.10
2018-09-10T18:25:55.900Z,1.43
2018-09-10T18:28:24.167Z,1.27
2018-09-10T18:30:52.391Z,1.30
2018-09-10T18:33:20.596Z,1.10
2018-09-10T18:35:48.781Z,1.60
2018-09-10T18:38:17.063Z,0.97
2018-09-10T18:40:45.291Z,2.60
2018-09-10T18:43:13.479Z,1.63
2018-09-10T18:45:41.747Z,1.30
2018-09-10T18:48:10.260Z,1.37
2018-09-10T18:50:38.462Z,1.40
2018-09-10T18:53:07.325Z,1.57
2018-09-10T18:55:35.533Z,1.20
2018-09-10T18:58:03.701Z,1.40
2018-09-10T19:00:31.883Z,1.67
2018-09-10T19:03:00.054Z,1.20
2018-09-10T19:05:28.245Z,1.27
2018-09-10T19:07:56.476Z,1.50
2018-09-10T19:10:24.649Z,1.60
2018-09-10T19:12:52.823Z,1.47
2018-09-10T19:15:20.996Z,2.10
2018-09-10T19:17:49.249Z,1.50
2018-09-10T19:20:17.416Z,1.43
2018-09-10T19:22:45.585Z,1.80
2018-09-10T19:25:13.761Z,1.47
2018-09-10T19:27:42.007Z,1.30
2018-09-10T19:30:16.666Z,1.63
2018-09-10T19:32:44.893Z,1.60
2018-09-10T19:35:13.105Z,1.87
2018-09-10T19:37:41.417Z,1.60
2018-09-10T19:40:09.527Z,1.50
2018-09-10T19:42:37.704Z,1.47
2018-09-10T19:45:06.004Z,1.40
2018-09-10T19:47:34.205Z,1.60
2018-09-10T19:50:02.382Z,1.93
2018-09-10T19:52:30.555Z,1.37
2018-09-10T19:54:58.794Z,1.80
2018-09-10T19:57:26.933Z,1.60
2018-09-10T19:59:55.132Z,1.30
2018-09-10T20:02:23.288Z,1.13
2018-09-10T20:04:51.478Z,1.47
2018-09-10T20:07:19.714Z,1.63
2018-09-10T20:09:47.994Z,1.70
2018-09-10T20:12:16.177Z,1.50
2018-09-10T20:14:44.344Z,1.80
2018-09-10T20:17:12.576Z,1.60
2018-09-10T20:19:40.830Z,1.93
2018-09-10T20:22:12.421Z,1.70
2018-09-10T20:24:40.548Z,1.83
2018-09-10T20:27:08.799Z,1.70
2018-09-10T20:29:37.176Z,1.93
2018-09-10T20:32:05.433Z,2.23
2018-09-10T20:34:33.615Z,2.03
2018-09-10T20:37:01.802Z,1.63
2018-09-10T20:39:30.096Z,1.87
2018-09-10T20:41:58.308Z,2.23
2018-09-10T20:44:26.457Z,1.90
2018-09-10T20:46:54.616Z,1.73
2018-09-10T20:49:22.806Z,1.77
2018-09-10T20:51:50.984Z,1.83
2018-09-10T20:54:19.153Z,1.90
2018-09-10T20:56:47.389Z,2.00
2018-09-10T20:59:16.408Z,1.80
2018-09-10T21:01:44.650Z,1.90
2018-09-10T21:04:12.839Z,1.70
2018-09-10T21:06:41.140Z,1.57
2018-09-10T21:09:10.159Z,1.83
2018-09-10T21:11:38.328Z,2.33
2018-09-10T21:14:06.588Z,1.90
2018-09-10T21:16:34.811Z,1.77
2018-09-10T21:19:03.070Z,1.87
2018-09-10T21:21:31.307Z,2.00
2018-09-10T21:23:59.477Z,1.63
2018-09-10T21:26:27.706Z,1.70
2018-09-10T21:29:02.735Z,1.77
2018-09-10T21:31:30.933Z,1.93
2018-09-10T21:33:59.148Z,1.83
2018-09-10T21:36:27.380Z,1.70
2018-09-10T21:38:55.571Z,1.53
2018-09-10T21:41:23.727Z,1.33
2018-09-10T21:43:51.915Z,1.40
2018-09-10T21:46:20.124Z,1.40
2018-09-10T21:48:48.334Z,1.63
2018-09-10T21:51:16.550Z,1.67
2018-09-10T21:53:44.790Z,1.80
2018-09-10T21:56:12.932Z,2.00
2018-09-10T21:58:41.110Z,2.13
2018-09-10T22:01:09.330Z,1.87
2018-09-10T22:03:37.535Z,2.40
2018-09-10T22:06:05.699Z,2.10
2018-09-10T22:08:33.851Z,1.83
2018-09-10T22:11:02.074Z,1.53
2018-09-10T22:13:30.293Z,1.90
2018-09-10T22:15:58.480Z,1.60
2018-09-10T22:18:26.652Z,2.00
2018-09-10T22:20:54.875Z,1.93
2018-09-10T22:23:23.025Z,2.00
2018-09-10T22:25:51.218Z,2.03
2018-09-10T22:28:19.385Z,2.00
2018-09-10T22:30:47.539Z,1.60
2018-09-10T22:33:15.736Z,2.13
2018-09-10T22:35:43.938Z,1.70
2018-09-10T22:38:12.164Z,2.17
2018-09-10T22:40:40.419Z,2.33
2018-09-10T22:43:08.625Z,2.17
2018-09-10T22:45:36.820Z,2.37
2018-09-10T22:48:05.273Z,2.23
2018-09-10T22:50:33.484Z,2.10
2018-09-10T22:53:01.694Z,2.00
2018-09-10T22:55:29.896Z,2.17
2018-09-10T22:57:58.129Z,2.00
2018-09-10T23:00:26.237Z,1.70
2018-09-10T23:02:54.403Z,1.80
2018-09-10T23:05:22.605Z,2.10
2018-09-10T23:07:50.795Z,1.77
2018-09-10T23:10:19.038Z,2.23
2018-09-10T23:12:48.033Z,1.90
2018-09-10T23:15:16.289Z,2.27
2018-09-10T23:17:44.441Z,2.20
2018-09-10T23:20:12.636Z,2.33
2018-09-10T23:22:40.809Z,2.07
2018-09-10T23:25:09.012Z,1.70
2018-09-10T23:27:37.187Z,1.80
2018-09-10T23:30:05.438Z,1.77
2018-09-10T23:32:33.656Z,1.77
2018-09-10T23:35:01.808Z,2.03
2018-09-10T23:37:30.083Z,1.73
2018-09-10T23:39:58.240Z,1.90
2018-09-10T23:42:26.454Z,1.80
2018-09-10T23:44:54.614Z,1.47
2018-09-10T23:47:22.768Z,1.57
2018-09-10T23:49:51.047Z,1.90
2018-09-10T23:52:19.232Z,1.93
2018-09-10T23:54:47.411Z,1.47
2018-09-10T23:57:15.594Z,1.40
2018-09-10T23:59:44.716Z,1.80
